sensor_id;sensor_type;location;lat;lon;timestamp;temperature;humidity
75164;HTU21D;63746;45.402;37.922;2023-02-28T00:01:22;10.73;65.81
75164;HTU21D;63746;45.402;37.922;2023-02-28T00:03:48;10.72;65.82
75164;HTU21D;63746;45.402;37.922;2023-02-28T00:06:14;10.72;65.85
75164;HTU21D;63746;45.402;37.922;2023-02-28T00:08:40;10.71;65.82
75164;HTU21D;63746;45.402;37.922;2023-02-28T00:11:09;10.71;65.83
75164;HTU21D;63746;45.402;37.922;2023-02-28T00:13:36;10.67;65.81
75164;HTU21D;63746;45.402;37.922;2023-02-28T00:16:05;10.66;65.82
75164;HTU21D;63746;45.402;37.922;2023-02-28T00:18:32;10.67;65.79
75164;HTU21D;63746;45.402;37.922;2023-02-28T00:20:58;10.64;65.82
75164;HTU21D;63746;45.402;37.922;2023-02-28T00:23:25;10.60;65.82
75164;HTU21D;63746;45.402;37.922;2023-02-28T00:25:51;10.58;65.90
75164;HTU21D;63746;45.402;37.922;2023-02-28T00:28:18;10.58;65.96
75164;HTU21D;63746;45.402;37.922;2023-02-28T00:30:44;10.57;65.97
75164;HTU21D;63746;45.402;37.922;2023-02-28T00:33:10;10.57;65.98
75164;HTU21D;63746;45.402;37.922;2023-02-28T00:35:36;10.54;66.01
75164;HTU21D;63746;45.402;37.922;2023-02-28T00:38:02;10.56;66.04
75164;HTU21D;63746;45.402;37.922;2023-02-28T00:40:28;10.54;66.07
75164;HTU21D;63746;45.402;37.922;2023-02-28T00:42:54;10.54;66.11
75164;HTU21D;63746;45.402;37.922;2023-02-28T00:45:20;10.55;66.10
75164;HTU21D;63746;45.402;37.922;2023-02-28T00:47:46;10.55;66.11
75164;HTU21D;63746;45.402;37.922;2023-02-28T00:50:18;10.54;66.07
75164;HTU21D;63746;45.402;37.922;2023-02-28T00:52:46;10.52;66.07
75164;HTU21D;63746;45.402;37.922;2023-02-28T00:55:14;10.50;66.07
75164;HTU21D;63746;45.402;37.922;2023-02-28T00:57:40;10.46;66.05
75164;HTU21D;63746;45.402;37.922;2023-02-28T01:00:07;10.43;66.11
75164;HTU21D;63746;45.402;37.922;2023-02-28T01:02:33;10.43;66.18
75164;HTU21D;63746;45.402;37.922;2023-02-28T01:04:59;10.42;66.21
75164;HTU21D;63746;45.402;37.922;2023-02-28T01:07:29;10.43;66.27
75164;HTU21D;63746;45.402;37.922;2023-02-28T01:09:54;10.46;66.31
75164;HTU21D;63746;45.402;37.922;2023-02-28T01:12:20;10.49;66.33
75164;HTU21D;63746;45.402;37.922;2023-02-28T01:14:46;10.51;66.33
75164;HTU21D;63746;45.402;37.922;2023-02-28T01:17:12;10.54;66.31
75164;HTU21D;63746;45.402;37.922;2023-02-28T01:19:38;10.58;66.28
75164;HTU21D;63746;45.402;37.922;2023-02-28T01:22:05;10.60;66.27
75164;HTU21D;63746;45.402;37.922;2023-02-28T01:24:32;10.62;66.24
75164;HTU21D;63746;45.402;37.922;2023-02-28T01:26:58;10.64;66.25
75164;HTU21D;63746;45.402;37.922;2023-02-28T01:29:24;10.67;66.22
75164;HTU21D;63746;45.402;37.922;2023-02-28T01:31:52;10.68;66.19
75164;HTU21D;63746;45.402;37.922;2023-02-28T01:34:18;10.71;66.19
75164;HTU21D;63746;45.402;37.922;2023-02-28T01:36:45;10.73;66.18
75164;HTU21D;63746;45.402;37.922;2023-02-28T01:39:11;10.75;66.16
75164;HTU21D;63746;45.402;37.922;2023-02-28T01:41:38;10.75;66.14
75164;HTU21D;63746;45.402;37.922;2023-02-28T01:46:52;10.80;66.12
75164;HTU21D;63746;45.402;37.922;2023-02-28T01:49:18;10.80;66.12
75164;HTU21D;63746;45.402;37.922;2023-02-28T01:51:48;10.82;66.11
75164;HTU21D;63746;45.402;37.922;2023-02-28T01:54:22;10.84;66.11
75164;HTU21D;63746;45.402;37.922;2023-02-28T01:56:57;10.86;66.08
75164;HTU21D;63746;45.402;37.922;2023-02-28T01:59:31;10.87;66.07
75164;HTU21D;63746;45.402;37.922;2023-02-28T02:02:00;10.88;66.02
75164;HTU21D;63746;45.402;37.922;2023-02-28T02:04:32;10.86;65.82
75164;HTU21D;63746;45.402;37.922;2023-02-28T02:06:59;10.79;65.77
75164;HTU21D;63746;45.402;37.922;2023-02-28T02:09:26;10.74;65.71
75164;HTU21D;63746;45.402;37.922;2023-02-28T02:11:54;10.67;65.68
75164;HTU21D;63746;45.402;37.922;2023-02-28T02:25:27;10.28;66.01
75164;HTU21D;63746;45.402;37.922;2023-02-28T02:36:34;10.26;66.24
75164;HTU21D;63746;45.402;37.922;2023-02-28T02:41:59;10.24;66.28
75164;HTU21D;63746;45.402;37.922;2023-02-28T02:44:31;10.24;66.36
75164;HTU21D;63746;45.402;37.922;2023-02-28T02:47:14;10.25;66.35
75164;HTU21D;63746;45.402;37.922;2023-02-28T02:49:48;10.26;66.31
75164;HTU21D;63746;45.402;37.922;2023-02-28T02:52:18;10.25;66.31
75164;HTU21D;63746;45.402;37.922;2023-02-28T02:54:48;10.26;66.34
75164;HTU21D;63746;45.402;37.922;2023-02-28T02:57:24;10.27;66.28
75164;HTU21D;63746;45.402;37.922;2023-02-28T02:59:53;10.26;66.24
75164;HTU21D;63746;45.402;37.922;2023-02-28T03:02:22;10.25;66.25
75164;HTU21D;63746;45.402;37.922;2023-02-28T03:04:53;10.25;66.26
75164;HTU21D;63746;45.402;37.922;2023-02-28T03:07:20;10.25;66.32
75164;HTU21D;63746;45.402;37.922;2023-02-28T03:09:52;10.28;66.36
75164;HTU21D;63746;45.402;37.922;2023-02-28T03:12:20;10.31;66.38
75164;HTU21D;63746;45.402;37.922;2023-02-28T03:15:03;10.33;66.28
75164;HTU21D;63746;45.402;37.922;2023-02-28T03:17:47;10.33;66.15
75164;HTU21D;63746;45.402;37.922;2023-02-28T03:20:39;10.27;66.02
75164;HTU21D;63746;45.402;37.922;2023-02-28T03:26:02;10.15;66.03
75164;HTU21D;63746;45.402;37.922;2023-02-28T03:28:38;10.10;66.11
75164;HTU21D;63746;45.402;37.922;2023-02-28T03:31:15;10.07;66.23
75164;HTU21D;63746;45.402;37.922;2023-02-28T03:33:46;10.05;66.30
75164;HTU21D;63746;45.402;37.922;2023-02-28T03:36:24;10.03;66.30
75164;HTU21D;63746;45.402;37.922;2023-02-28T03:38:58;10.03;66.40
75164;HTU21D;63746;45.402;37.922;2023-02-28T03:41:36;10.04;66.43
75164;HTU21D;63746;45.402;37.922;2023-02-28T03:47:16;10.08;66.59
75164;HTU21D;63746;45.402;37.922;2023-02-28T03:49:49;10.11;66.65
75164;HTU21D;63746;45.402;37.922;2023-02-28T03:52:18;10.12;66.66
75164;HTU21D;63746;45.402;37.922;2023-02-28T03:54:48;10.16;66.64
75164;HTU21D;63746;45.402;37.922;2023-02-28T03:59:46;10.20;66.58
75164;HTU21D;63746;45.402;37.922;2023-02-28T04:02:13;10.20;66.57
75164;HTU21D;63746;45.402;37.922;2023-02-28T04:04:39;10.21;66.56
75164;HTU21D;63746;45.402;37.922;2023-02-28T04:07:11;10.21;66.50
75164;HTU21D;63746;45.402;37.922;2023-02-28T04:09:37;10.16;66.40
75164;HTU21D;63746;45.402;37.922;2023-02-28T04:12:04;10.10;66.40
75164;HTU21D;63746;45.402;37.922;2023-02-28T04:14:30;10.05;66.50
75164;HTU21D;63746;45.402;37.922;2023-02-28T04:16:55;10.04;66.56
75164;HTU21D;63746;45.402;37.922;2023-02-28T04:19:21;9.99;66.56
75164;HTU21D;63746;45.402;37.922;2023-02-28T04:21:49;9.97;66.62
75164;HTU21D;63746;45.402;37.922;2023-02-28T04:24:25;9.94;66.65
75164;HTU21D;63746;45.402;37.922;2023-02-28T04:26:53;9.91;66.69
75164;HTU21D;63746;45.402;37.922;2023-02-28T04:31:48;9.86;66.89
75164;HTU21D;63746;45.402;37.922;2023-02-28T04:34:14;9.89;66.93
75164;HTU21D;63746;45.402;37.922;2023-02-28T04:36:41;9.91;66.98
75164;HTU21D;63746;45.402;37.922;2023-02-28T04:39:07;9.93;67.01
75164;HTU21D;63746;45.402;37.922;2023-02-28T04:41:33;9.96;67.04
75164;HTU21D;63746;45.402;37.922;2023-02-28T04:43:59;9.98;67.07
75164;HTU21D;63746;45.402;37.922;2023-02-28T04:46:25;10.01;67.14
75164;HTU21D;63746;45.402;37.922;2023-02-28T04:48:50;10.06;67.17
75164;HTU21D;63746;45.402;37.922;2023-02-28T04:51:18;10.10;67.19
75164;HTU21D;63746;45.402;37.922;2023-02-28T04:53:44;10.16;67.20
75164;HTU21D;63746;45.402;37.922;2023-02-28T04:56:13;10.20;67.20
75164;HTU21D;63746;45.402;37.922;2023-02-28T04:58:39;10.26;67.21
75164;HTU21D;63746;45.402;37.922;2023-02-28T05:01:13;10.28;67.20
75164;HTU21D;63746;45.402;37.922;2023-02-28T05:03:42;10.30;67.18
75164;HTU21D;63746;45.402;37.922;2023-02-28T05:06:09;10.33;67.19
75164;HTU21D;63746;45.402;37.922;2023-02-28T05:08:35;10.34;67.17
75164;HTU21D;63746;45.402;37.922;2023-02-28T05:11:02;10.33;67.15
75164;HTU21D;63746;45.402;37.922;2023-02-28T05:13:28;10.30;67.17
75164;HTU21D;63746;45.402;37.922;2023-02-28T05:15:55;10.30;67.17
75164;HTU21D;63746;45.402;37.922;2023-02-28T05:18:21;10.30;67.14
75164;HTU21D;63746;45.402;37.922;2023-02-28T05:20:47;10.27;67.09
75164;HTU21D;63746;45.402;37.922;2023-02-28T05:23:14;10.21;67.08
75164;HTU21D;63746;45.402;37.922;2023-02-28T05:25:41;10.13;67.04
75164;HTU21D;63746;45.402;37.922;2023-02-28T05:28:07;10.03;67.05
75164;HTU21D;63746;45.402;37.922;2023-02-28T05:30:33;9.95;67.10
75164;HTU21D;63746;45.402;37.922;2023-02-28T05:32:59;9.85;67.18
75164;HTU21D;63746;45.402;37.922;2023-02-28T05:35:26;9.79;67.23
75164;HTU21D;63746;45.402;37.922;2023-02-28T05:37:52;9.75;67.29
75164;HTU21D;63746;45.402;37.922;2023-02-28T05:40:18;9.67;67.38
75164;HTU21D;63746;45.402;37.922;2023-02-28T05:42:46;9.62;67.46
75164;HTU21D;63746;45.402;37.922;2023-02-28T05:45:12;9.55;67.48
75164;HTU21D;63746;45.402;37.922;2023-02-28T05:47:38;9.51;67.55
75164;HTU21D;63746;45.402;37.922;2023-02-28T05:50:05;9.44;67.59
75164;HTU21D;63746;45.402;37.922;2023-02-28T05:52:31;9.39;67.62
75164;HTU21D;63746;45.402;37.922;2023-02-28T05:54:58;9.30;67.59
75164;HTU21D;63746;45.402;37.922;2023-02-28T05:57:24;9.26;67.71
75164;HTU21D;63746;45.402;37.922;2023-02-28T05:59:50;9.24;67.72
75164;HTU21D;63746;45.402;37.922;2023-02-28T06:02:17;9.22;67.81
75164;HTU21D;63746;45.402;37.922;2023-02-28T06:04:43;9.22;67.87
75164;HTU21D;63746;45.402;37.922;2023-02-28T06:07:10;9.26;68.09
75164;HTU21D;63746;45.402;37.922;2023-02-28T06:09:36;9.31;68.17
75164;HTU21D;63746;45.402;37.922;2023-02-28T06:12:04;9.36;68.23
75164;HTU21D;63746;45.402;37.922;2023-02-28T06:14:32;9.44;68.34
75164;HTU21D;63746;45.402;37.922;2023-02-28T06:16:59;9.51;68.41
75164;HTU21D;63746;45.402;37.922;2023-02-28T06:19:25;9.60;68.37
75164;HTU21D;63746;45.402;37.922;2023-02-28T06:21:53;9.64;68.22
75164;HTU21D;63746;45.402;37.922;2023-02-28T06:24:20;9.68;68.17
75164;HTU21D;63746;45.402;37.922;2023-02-28T06:26:46;9.68;68.01
75164;HTU21D;63746;45.402;37.922;2023-02-28T06:29:12;9.66;67.95
75164;HTU21D;63746;45.402;37.922;2023-02-28T06:31:46;9.63;67.81
75164;HTU21D;63746;45.402;37.922;2023-02-28T06:34:12;9.55;68.06
75164;HTU21D;63746;45.402;37.922;2023-02-28T06:36:39;9.47;67.88
75164;HTU21D;63746;45.402;37.922;2023-02-28T06:39:06;9.38;67.98
75164;HTU21D;63746;45.402;37.922;2023-02-28T06:41:32;9.35;68.04
75164;HTU21D;63746;45.402;37.922;2023-02-28T06:44:12;9.33;68.15
75164;HTU21D;63746;45.402;37.922;2023-02-28T06:46:42;9.32;68.77
75164;HTU21D;63746;45.402;37.922;2023-02-28T06:49:09;9.32;68.42
75164;HTU21D;63746;45.402;37.922;2023-02-28T06:51:40;9.33;68.40
75164;HTU21D;63746;45.402;37.922;2023-02-28T06:54:07;9.35;68.40
75164;HTU21D;63746;45.402;37.922;2023-02-28T06:56:36;9.37;68.38
75164;HTU21D;63746;45.402;37.922;2023-02-28T06:59:03;9.39;68.47
75164;HTU21D;63746;45.402;37.922;2023-02-28T07:01:29;9.41;68.44
75164;HTU21D;63746;45.402;37.922;2023-02-28T07:03:57;9.46;68.58
75164;HTU21D;63746;45.402;37.922;2023-02-28T07:06:24;9.51;68.57
75164;HTU21D;63746;45.402;37.922;2023-02-28T07:08:51;9.56;68.51
75164;HTU21D;63746;45.402;37.922;2023-02-28T07:11:25;9.59;68.53
75164;HTU21D;63746;45.402;37.922;2023-02-28T07:13:53;9.63;68.76
75164;HTU21D;63746;45.402;37.922;2023-02-28T07:16:20;9.70;68.78
75164;HTU21D;63746;45.402;37.922;2023-02-28T07:18:46;9.80;68.75
75164;HTU21D;63746;45.402;37.922;2023-02-28T07:21:12;9.86;68.66
75164;HTU21D;63746;45.402;37.922;2023-02-28T07:23:38;9.96;68.83
75164;HTU21D;63746;45.402;37.922;2023-02-28T07:26:06;10.05;68.72
75164;HTU21D;63746;45.402;37.922;2023-02-28T07:28:32;10.10;68.65
75164;HTU21D;63746;45.402;37.922;2023-02-28T07:31:04;10.15;68.62
75164;HTU21D;63746;45.402;37.922;2023-02-28T07:33:30;10.21;68.49
75164;HTU21D;63746;45.402;37.922;2023-02-28T07:36:08;10.22;68.44
75164;HTU21D;63746;45.402;37.922;2023-02-28T07:38:35;10.22;68.20
75164;HTU21D;63746;45.402;37.922;2023-02-28T07:41:01;10.22;68.25
75164;HTU21D;63746;45.402;37.922;2023-02-28T07:43:30;10.22;68.14
75164;HTU21D;63746;45.402;37.922;2023-02-28T07:46:12;10.19;68.39
75164;HTU21D;63746;45.402;37.922;2023-02-28T07:48:40;10.19;68.20
75164;HTU21D;63746;45.402;37.922;2023-02-28T07:51:06;10.18;68.20
75164;HTU21D;63746;45.402;37.922;2023-02-28T07:53:32;10.19;68.20
75164;HTU21D;63746;45.402;37.922;2023-02-28T07:56:00;10.21;68.24
75164;HTU21D;63746;45.402;37.922;2023-02-28T07:58:27;10.19;68.17
75164;HTU21D;63746;45.402;37.922;2023-02-28T08:00:53;10.19;68.21
75164;HTU21D;63746;45.402;37.922;2023-02-28T08:03:21;10.19;68.28
75164;HTU21D;63746;45.402;37.922;2023-02-28T08:05:47;10.22;68.38
75164;HTU21D;63746;45.402;37.922;2023-02-28T08:08:15;10.25;68.39
75164;HTU21D;63746;45.402;37.922;2023-02-28T08:10:41;10.27;68.32
75164;HTU21D;63746;45.402;37.922;2023-02-28T08:13:07;10.31;68.36
75164;HTU21D;63746;45.402;37.922;2023-02-28T08:15:33;10.35;68.47
75164;HTU21D;63746;45.402;37.922;2023-02-28T08:17:59;10.41;68.42
75164;HTU21D;63746;45.402;37.922;2023-02-28T08:20:26;10.46;68.50
75164;HTU21D;63746;45.402;37.922;2023-02-28T08:22:52;10.54;68.54
75164;HTU21D;63746;45.402;37.922;2023-02-28T08:25:18;10.59;68.50
75164;HTU21D;63746;45.402;37.922;2023-02-28T08:27:44;10.64;68.48
75164;HTU21D;63746;45.402;37.922;2023-02-28T08:30:12;10.70;68.44
75164;HTU21D;63746;45.402;37.922;2023-02-28T08:32:39;10.75;68.49
75164;HTU21D;63746;45.402;37.922;2023-02-28T08:35:05;10.84;68.47
75164;HTU21D;63746;45.402;37.922;2023-02-28T08:37:31;10.89;68.33
75164;HTU21D;63746;45.402;37.922;2023-02-28T08:39:57;10.89;68.19
75164;HTU21D;63746;45.402;37.922;2023-02-28T08:42:24;10.88;68.02
75164;HTU21D;63746;45.402;37.922;2023-02-28T08:44:50;10.85;68.02
75164;HTU21D;63746;45.402;37.922;2023-02-28T08:47:16;10.85;68.07
75164;HTU21D;63746;45.402;37.922;2023-02-28T08:49:42;10.86;68.02
75164;HTU21D;63746;45.402;37.922;2023-02-28T08:52:08;10.85;67.99
75164;HTU21D;63746;45.402;37.922;2023-02-28T08:54:35;10.81;67.89
75164;HTU21D;63746;45.402;37.922;2023-02-28T08:57:02;10.74;67.84
75164;HTU21D;63746;45.402;37.922;2023-02-28T08:59:29;10.71;67.91
75164;HTU21D;63746;45.402;37.922;2023-02-28T09:01:55;10.69;67.93
75164;HTU21D;63746;45.402;37.922;2023-02-28T09:04:21;10.66;67.98
75164;HTU21D;63746;45.402;37.922;2023-02-28T09:06:47;10.66;68.05
75164;HTU21D;63746;45.402;37.922;2023-02-28T09:09:15;10.65;68.04
75164;HTU21D;63746;45.402;37.922;2023-02-28T09:11:41;10.66;68.07
75164;HTU21D;63746;45.402;37.922;2023-02-28T09:14:07;10.63;68.00
75164;HTU21D;63746;45.402;37.922;2023-02-28T09:16:33;10.59;67.94
75164;HTU21D;63746;45.402;37.922;2023-02-28T09:19:00;10.56;67.95
75164;HTU21D;63746;45.402;37.922;2023-02-28T09:21:26;10.53;67.97
75164;HTU21D;63746;45.402;37.922;2023-02-28T09:23:52;10.53;68.01
75164;HTU21D;63746;45.402;37.922;2023-02-28T09:26:24;10.51;68.04
75164;HTU21D;63746;45.402;37.922;2023-02-28T09:28:51;10.49;68.04
75164;HTU21D;63746;45.402;37.922;2023-02-28T09:31:21;10.49;68.07
75164;HTU21D;63746;45.402;37.922;2023-02-28T09:33:49;10.48;68.13
75164;HTU21D;63746;45.402;37.922;2023-02-28T09:36:15;10.48;68.15
75164;HTU21D;63746;45.402;37.922;2023-02-28T09:38:41;10.50;68.20
75164;HTU21D;63746;45.402;37.922;2023-02-28T09:41:23;10.51;68.27
75164;HTU21D;63746;45.402;37.922;2023-02-28T09:44:01;10.51;68.26
75164;HTU21D;63746;45.402;37.922;2023-02-28T09:46:36;10.52;68.21
75164;HTU21D;63746;45.402;37.922;2023-02-28T09:49:10;10.52;68.17
75164;HTU21D;63746;45.402;37.922;2023-02-28T09:51:45;10.51;68.07
75164;HTU21D;63746;45.402;37.922;2023-02-28T09:54:20;10.49;68.09
75164;HTU21D;63746;45.402;37.922;2023-02-28T09:56:51;10.48;68.13
75164;HTU21D;63746;45.402;37.922;2023-02-28T09:59:23;10.46;68.10
75164;HTU21D;63746;45.402;37.922;2023-02-28T10:07:02;10.36;68.04
75164;HTU21D;63746;45.402;37.922;2023-02-28T10:09:32;10.30;68.05
75164;HTU21D;63746;45.402;37.922;2023-02-28T10:12:05;10.29;68.30
75164;HTU21D;63746;45.402;37.922;2023-02-28T10:14:34;10.31;68.28
75164;HTU21D;63746;45.402;37.922;2023-02-28T10:17:30;10.31;68.21
75164;HTU21D;63746;45.402;37.922;2023-02-28T10:19:59;10.29;68.27
75164;HTU21D;63746;45.402;37.922;2023-02-28T10:22:53;10.30;68.50
75164;HTU21D;63746;45.402;37.922;2023-02-28T10:25:25;10.34;68.48
75164;HTU21D;63746;45.402;37.922;2023-02-28T10:28:04;10.38;68.55
75164;HTU21D;63746;45.402;37.922;2023-02-28T10:30:31;10.35;68.32
75164;HTU21D;63746;45.402;37.922;2023-02-28T10:32:57;10.34;68.33
75164;HTU21D;63746;45.402;37.922;2023-02-28T10:35:25;10.33;68.30
75164;HTU21D;63746;45.402;37.922;2023-02-28T10:37:56;10.31;68.38
75164;HTU21D;63746;45.402;37.922;2023-02-28T10:45:22;10.37;68.34
75164;HTU21D;63746;45.402;37.922;2023-02-28T10:47:52;10.35;68.31
75164;HTU21D;63746;45.402;37.922;2023-02-28T10:52:54;10.30;68.26
75164;HTU21D;63746;45.402;37.922;2023-02-28T10:55:25;10.28;68.32
75164;HTU21D;63746;45.402;37.922;2023-02-28T10:57:52;10.25;68.30
75164;HTU21D;63746;45.402;37.922;2023-02-28T11:00:23;10.20;68.36
75164;HTU21D;63746;45.402;37.922;2023-02-28T11:02:51;10.20;68.50
75164;HTU21D;63746;45.402;37.922;2023-02-28T11:05:32;10.25;68.71
75164;HTU21D;63746;45.402;37.922;2023-02-28T11:08:14;10.28;68.65
75164;HTU21D;63746;45.402;37.922;2023-02-28T11:10:54;10.27;68.54
75164;HTU21D;63746;45.402;37.922;2023-02-28T11:13:35;10.27;68.48
75164;HTU21D;63746;45.402;37.922;2023-02-28T11:16:09;10.23;68.36
75164;HTU21D;63746;45.402;37.922;2023-02-28T11:18:51;10.20;68.43
75164;HTU21D;63746;45.402;37.922;2023-02-28T11:21:23;10.18;68.42
75164;HTU21D;63746;45.402;37.922;2023-02-28T11:23:52;10.14;68.40
75164;HTU21D;63746;45.402;37.922;2023-02-28T11:26:44;10.08;68.31
75164;HTU21D;63746;45.402;37.922;2023-02-28T11:29:19;10.05;68.38
75164;HTU21D;63746;45.402;37.922;2023-02-28T11:32:11;10.00;68.41
75164;HTU21D;63746;45.402;37.922;2023-02-28T11:34:32;9.93;68.39
75164;HTU21D;63746;45.402;37.922;2023-02-28T11:36:59;9.86;68.39
75164;HTU21D;63746;45.402;37.922;2023-02-28T11:39:27;9.77;68.31
75164;HTU21D;63746;45.402;37.922;2023-02-28T11:44:25;9.66;68.37
75164;HTU21D;63746;45.402;37.922;2023-02-28T11:46:52;9.57;68.35
75164;HTU21D;63746;45.402;37.922;2023-02-28T11:49:54;9.49;68.36
75164;HTU21D;63746;45.402;37.922;2023-02-28T11:55:13;9.31;68.52
75164;HTU21D;63746;45.402;37.922;2023-02-28T12:00:37;9.24;68.91
75164;HTU21D;63746;45.402;37.922;2023-02-28T12:06:28;9.18;68.82
75164;HTU21D;63746;45.402;37.922;2023-02-28T12:17:14;9.16;69.20
75164;HTU21D;63746;45.402;37.922;2023-02-28T12:22:43;9.12;68.86
75164;HTU21D;63746;45.402;37.922;2023-02-28T12:27:41;9.08;68.87
75164;HTU21D;63746;45.402;37.922;2023-02-28T12:33:10;9.01;68.93
75164;HTU21D;63746;45.402;37.922;2023-02-28T12:35:52;9.02;69.16
75164;HTU21D;63746;45.402;37.922;2023-02-28T12:38:41;9.09;69.49
75164;HTU21D;63746;45.402;37.922;2023-02-28T12:41:33;9.16;69.38
75164;HTU21D;63746;45.402;37.922;2023-02-28T12:44:04;9.15;69.01
75164;HTU21D;63746;45.402;37.922;2023-02-28T12:46:41;9.12;68.91
75164;HTU21D;63746;45.402;37.922;2023-02-28T12:49:24;9.09;68.89
75164;HTU21D;63746;45.402;37.922;2023-02-28T12:51:51;9.06;68.81
75164;HTU21D;63746;45.402;37.922;2023-02-28T12:54:37;9.01;68.83
75164;HTU21D;63746;45.402;37.922;2023-02-28T13:00:18;9.04;69.04
75164;HTU21D;63746;45.402;37.922;2023-02-28T13:08:41;8.92;68.94
75164;HTU21D;63746;45.402;37.922;2023-02-28T13:11:29;8.90;69.09
75164;HTU21D;63746;45.402;37.922;2023-02-28T13:14:02;8.87;69.04
75164;HTU21D;63746;45.402;37.922;2023-02-28T13:19:37;8.70;68.87
75164;HTU21D;63746;45.402;37.922;2023-02-28T13:22:03;8.65;68.87
75164;HTU21D;63746;45.402;37.922;2023-02-28T13:24:38;8.59;68.84
75164;HTU21D;63746;45.402;37.922;2023-02-28T13:29:41;8.47;69.10
75164;HTU21D;63746;45.402;37.922;2023-02-28T13:34:38;8.34;68.88
75164;HTU21D;63746;45.402;37.922;2023-02-28T13:47:42;8.18;69.64
75164;HTU21D;63746;45.402;37.922;2023-02-28T13:55:37;8.08;69.24
75164;HTU21D;63746;45.402;37.922;2023-02-28T13:58:16;8.05;69.32
75164;HTU21D;63746;45.402;37.922;2023-02-28T14:06:32;7.98;69.75
75164;HTU21D;63746;45.402;37.922;2023-02-28T14:11:39;7.83;69.33
75164;HTU21D;63746;45.402;37.922;2023-02-28T14:14:08;7.78;69.27
75164;HTU21D;63746;45.402;37.922;2023-02-28T14:16:44;7.71;69.33
75164;HTU21D;63746;45.402;37.922;2023-02-28T14:24:34;7.60;69.42
75164;HTU21D;63746;45.402;37.922;2023-02-28T14:27:28;7.59;69.58
75164;HTU21D;63746;45.402;37.922;2023-02-28T14:36:12;7.60;69.87
75164;HTU21D;63746;45.402;37.922;2023-02-28T14:38:42;7.65;69.81
75164;HTU21D;63746;45.402;37.922;2023-02-28T14:43:58;7.70;69.77
75164;HTU21D;63746;45.402;37.922;2023-02-28T14:46:35;7.71;69.57
75164;HTU21D;63746;45.402;37.922;2023-02-28T14:49:04;7.73;69.45
75164;HTU21D;63746;45.402;37.922;2023-02-28T14:51:31;7.73;69.36
75164;HTU21D;63746;45.402;37.922;2023-02-28T14:54:01;7.73;69.33
75164;HTU21D;63746;45.402;37.922;2023-02-28T14:56:36;7.75;69.39
75164;HTU21D;63746;45.402;37.922;2023-02-28T14:59:03;7.76;69.88
75164;HTU21D;63746;45.402;37.922;2023-02-28T15:01:29;7.73;69.41
75164;HTU21D;63746;45.402;37.922;2023-02-28T15:04:02;7.73;69.33
75164;HTU21D;63746;45.402;37.922;2023-02-28T15:06:29;7.72;69.33
75164;HTU21D;63746;45.402;37.922;2023-02-28T15:09:10;7.73;69.55
75164;HTU21D;63746;45.402;37.922;2023-02-28T15:11:37;7.73;69.33
75164;HTU21D;63746;45.402;37.922;2023-02-28T15:14:04;7.76;69.74
75164;HTU21D;63746;45.402;37.922;2023-02-28T15:16:41;7.85;69.71
75164;HTU21D;63746;45.402;37.922;2023-02-28T15:19:29;7.87;69.55
75164;HTU21D;63746;45.402;37.922;2023-02-28T15:22:04;7.85;69.22
75164;HTU21D;63746;45.402;37.922;2023-02-28T15:24:38;7.82;69.12
75164;HTU21D;63746;45.402;37.922;2023-02-28T15:27:29;7.82;69.15
75164;HTU21D;63746;45.402;37.922;2023-02-28T15:29:57;7.77;69.08
75164;HTU21D;63746;45.402;37.922;2023-02-28T15:32:36;7.75;69.16
75164;HTU21D;63746;45.402;37.922;2023-02-28T15:35:27;7.73;69.29
75164;HTU21D;63746;45.402;37.922;2023-02-28T15:38:12;7.71;69.13
75164;HTU21D;63746;45.402;37.922;2023-02-28T15:40:43;7.69;69.13
75164;HTU21D;63746;45.402;37.922;2023-02-28T15:43:16;7.67;69.16
75164;HTU21D;63746;45.402;37.922;2023-02-28T15:45:50;7.67;69.26
75164;HTU21D;63746;45.402;37.922;2023-02-28T15:51:05;7.79;70.11
75164;HTU21D;63746;45.402;37.922;2023-02-28T15:53:36;8.01;70.43
75164;HTU21D;63746;45.402;37.922;2023-02-28T15:56:05;8.17;70.22
75164;HTU21D;63746;45.402;37.922;2023-02-28T15:58:33;8.18;69.41
75164;HTU21D;63746;45.402;37.922;2023-02-28T16:01:25;8.15;69.16
75164;HTU21D;63746;45.402;37.922;2023-02-28T16:03:53;8.11;68.98
75164;HTU21D;63746;45.402;37.922;2023-02-28T16:09:25;8.01;68.82
75164;HTU21D;63746;45.402;37.922;2023-02-28T16:11:55;7.92;68.77
75164;HTU21D;63746;45.402;37.922;2023-02-28T16:14:25;7.86;68.79
75164;HTU21D;63746;45.402;37.922;2023-02-28T16:16:55;7.81;68.84
75164;HTU21D;63746;45.402;37.922;2023-02-28T16:19:22;7.81;68.97
75164;HTU21D;63746;45.402;37.922;2023-02-28T16:21:48;7.81;69.00
75164;HTU21D;63746;45.402;37.922;2023-02-28T16:24:14;7.81;68.97
75164;HTU21D;63746;45.402;37.922;2023-02-28T16:26:44;7.77;69.00
75164;HTU21D;63746;45.402;37.922;2023-02-28T16:29:16;7.78;69.01
75164;HTU21D;63746;45.402;37.922;2023-02-28T16:31:44;7.73;68.95
75164;HTU21D;63746;45.402;37.922;2023-02-28T16:34:10;7.72;69.10
75164;HTU21D;63746;45.402;37.922;2023-02-28T16:36:36;7.75;69.52
75164;HTU21D;63746;45.402;37.922;2023-02-28T16:39:02;7.93;70.27
75164;HTU21D;63746;45.402;37.922;2023-02-28T16:41:29;8.09;69.95
75164;HTU21D;63746;45.402;37.922;2023-02-28T16:43:58;8.12;69.34
75164;HTU21D;63746;45.402;37.922;2023-02-28T16:46:30;8.06;69.00
75164;HTU21D;63746;45.402;37.922;2023-02-28T16:48:57;8.01;68.86
75164;HTU21D;63746;45.402;37.922;2023-02-28T16:51:23;7.97;68.82
75164;HTU21D;63746;45.402;37.922;2023-02-28T16:53:49;7.91;68.84
75164;HTU21D;63746;45.402;37.922;2023-02-28T16:56:21;7.89;68.85
75164;HTU21D;63746;45.402;37.922;2023-02-28T16:58:49;7.89;68.91
75164;HTU21D;63746;45.402;37.922;2023-02-28T17:01:18;7.89;68.91
75164;HTU21D;63746;45.402;37.922;2023-02-28T17:03:48;7.87;68.87
75164;HTU21D;63746;45.402;37.922;2023-02-28T17:06:24;7.86;68.97
75164;HTU21D;63746;45.402;37.922;2023-02-28T17:08:54;7.85;68.97
75164;HTU21D;63746;45.402;37.922;2023-02-28T17:11:21;7.84;69.00
75164;HTU21D;63746;45.402;37.922;2023-02-28T17:13:47;7.81;68.88
75164;HTU21D;63746;45.402;37.922;2023-02-28T17:16:25;7.79;69.23
75164;HTU21D;63746;45.402;37.922;2023-02-28T17:18:54;7.83;69.20
75164;HTU21D;63746;45.402;37.922;2023-02-28T17:21:20;7.81;69.10
75164;HTU21D;63746;45.402;37.922;2023-02-28T17:23:46;7.83;69.19
75164;HTU21D;63746;45.402;37.922;2023-02-28T17:26:14;7.81;69.13
75164;HTU21D;63746;45.402;37.922;2023-02-28T17:28:43;7.83;69.22
75164;HTU21D;63746;45.402;37.922;2023-02-28T17:31:09;7.85;69.17
75164;HTU21D;63746;45.402;37.922;2023-02-28T17:33:35;7.83;68.99
75164;HTU21D;63746;45.402;37.922;2023-02-28T17:36:01;7.76;68.91
75164;HTU21D;63746;45.402;37.922;2023-02-28T17:38:27;7.71;68.84
75164;HTU21D;63746;45.402;37.922;2023-02-28T17:40:53;7.62;68.87
75164;HTU21D;63746;45.402;37.922;2023-02-28T17:43:25;7.61;69.06